Terminal Aerodrome Forecast
Issued by NWS

Home | Current Version | Previous Version | Text Only | Print | Product List | Glossary On
Versions: 1 2 3 4 5 6 7 8 9 10 11 12 13 14 15 16 17 18 19 20 21 22 23 24 25 26 27 28 29 30 31 32
000
FTUS45 KBOU 210526
TAFBJC
TAF
KBJC 210526Z 2106/2206 28011KT P6SM SCT120 BKN200
     FM210610 02012G19KT P6SM SCT100 BKN150
     FM210700 08008KT P6SM FEW080 SCT120 BKN180
     FM210900 VRB06KT P6SM VCSH SCT080 BKN120
     FM211600 30015G25KT P6SM FEW100
     FM220100 28010KT P6SM SCT200=

USA.gov is the U.S. government's official web portal to all federal, state and local government web resources and services.